createdAt,value
2023-04-15T00:00:34.178Z,0.90
2023-04-15T00:03:16.142Z,0.90
2023-04-15T00:05:45.964Z,0.90
2023-04-15T00:08:16.756Z,0.90
2023-04-15T00:10:46.842Z,0.80
2023-04-15T00:13:17.194Z,0.60
2023-04-15T00:15:49.266Z,0.70
2023-04-15T00:18:18.722Z,0.70
2023-04-15T00:20:48.894Z,0.70
2023-04-15T00:23:21.817Z,0.60
2023-04-15T00:25:53.939Z,0.50
2023-04-15T00:28:24.890Z,0.60
2023-04-15T00:30:58.385Z,0.60
2023-04-15T00:36:41.487Z,0.90
2023-04-15T00:39:11.280Z,0.80
2023-04-15T00:41:47.781Z,1.00
2023-04-15T00:46:52.213Z,1.00
2023-04-15T00:49:21.708Z,1.20
2023-04-15T00:51:51.973Z,0.90
2023-04-15T00:54:21.799Z,1.10
2023-04-15T00:56:52.670Z,0.60
2023-04-15T00:59:22.928Z,0.80
2023-04-15T01:01:53.538Z,1.50
2023-04-15T01:04:23.138Z,0.90
2023-04-15T01:06:52.853Z,0.90
2023-04-15T01:09:22.365Z,1.20
2023-04-15T01:11:53.969Z,0.90
2023-04-15T01:14:24.139Z,0.80
2023-04-15T01:16:53.681Z,0.60
2023-04-15T01:19:23.031Z,0.90
2023-04-15T01:21:52.882Z,1.00
2023-04-15T01:24:24.619Z,1.00
2023-04-15T01:26:54.328Z,1.10
2023-04-15T01:29:24.317Z,1.00
2023-04-15T01:31:56.969Z,0.90
2023-04-15T01:34:28.877Z,0.80
2023-04-15T01:37:00.749Z,0.70
2023-04-15T01:39:31.823Z,0.70
2023-04-15T01:42:02.864Z,0.70
2023-04-15T01:44:32.723Z,0.60
2023-04-15T01:47:03.260Z,0.80
2023-04-15T01:49:34.013Z,0.50
2023-04-15T01:52:04.319Z,0.70
2023-04-15T01:54:33.686Z,0.60
2023-04-15T01:57:03.855Z,0.50
2023-04-15T01:59:33.986Z,0.70
2023-04-15T02:02:03.735Z,0.70
2023-04-15T02:04:35.071Z,0.70
2023-04-15T02:07:07.286Z,0.80
2023-04-15T02:09:38.846Z,1.10
2023-04-15T02:12:10.368Z,0.60
2023-04-15T02:14:40.872Z,0.90
2023-04-15T02:17:12.548Z,0.90
2023-04-15T02:19:44.332Z,0.70
2023-04-15T02:22:19.098Z,0.80
2023-04-15T02:24:49.582Z,0.50
2023-04-15T02:27:22.865Z,0.70
2023-04-15T02:29:52.922Z,0.90
2023-04-15T02:32:24.683Z,0.70
2023-04-15T02:35:07.024Z,0.50
2023-04-15T02:37:43.826Z,0.70
2023-04-15T02:40:15.031Z,1.40
2023-04-15T02:42:44.903Z,0.80
2023-04-15T02:45:16.307Z,0.80
2023-04-15T02:47:47.554Z,0.70
2023-04-15T02:50:17.904Z,0.60
2023-04-15T02:52:47.898Z,0.70
2023-04-15T02:55:18.283Z,1.00
2023-04-15T02:57:48.603Z,0.70
2023-04-15T03:00:19.406Z,0.90
2023-04-15T03:02:52.507Z,0.50
2023-04-15T03:05:25.927Z,0.90
2023-04-15T03:07:55.641Z,0.80
2023-04-15T03:10:25.640Z,0.50
2023-04-15T03:12:54.965Z,0.70
2023-04-15T03:15:24.365Z,0.90
2023-04-15T03:17:54.988Z,1.10
2023-04-15T03:20:24.953Z,0.70
2023-04-15T03:23:01.416Z,0.60
2023-04-15T03:25:32.336Z,1.30
2023-04-15T03:28:02.545Z,2.20
2023-04-15T03:30:32.002Z,1.90
2023-04-15T03:33:01.595Z,1.00
2023-04-15T03:35:31.555Z,0.90
2023-04-15T03:38:01.370Z,0.90
2023-04-15T03:40:30.733Z,1.00
2023-04-15T03:43:00.787Z,0.70
2023-04-15T03:45:33.296Z,0.90
2023-04-15T03:48:16.105Z,0.80
2023-04-15T03:50:48.532Z,0.60
2023-04-15T03:53:18.025Z,1.30
2023-04-15T03:55:49.155Z,0.90
2023-04-15T03:58:21.632Z,1.10
2023-04-15T04:00:54.952Z,1.20
2023-04-15T04:03:26.559Z,1.00
2023-04-15T04:05:56.382Z,1.50
2023-04-15T04:08:25.811Z,1.70
2023-04-15T04:10:55.155Z,1.30
2023-04-15T04:13:24.588Z,2.20
2023-04-15T04:15:54.686Z,1.20
2023-04-15T04:18:24.071Z,0.90
2023-04-15T04:20:53.506Z,1.10
2023-04-15T04:23:23.054Z,1.80
2023-04-15T04:25:53.421Z,1.50
2023-04-15T04:28:23.213Z,1.40
2023-04-15T04:30:52.632Z,1.30
2023-04-15T04:33:22.276Z,1.30
2023-04-15T04:35:51.710Z,1.20
2023-04-15T04:38:21.171Z,1.40
2023-04-15T04:40:50.610Z,1.40
2023-04-15T04:43:22.722Z,1.20
2023-04-15T04:45:52.304Z,1.30
2023-04-15T04:48:21.695Z,1.40
2023-04-15T04:50:52.352Z,1.20
2023-04-15T04:53:21.772Z,1.70
2023-04-15T04:55:51.259Z,1.50
2023-04-15T04:58:20.788Z,1.50
2023-04-15T05:00:50.275Z,1.70
2023-04-15T05:03:20.014Z,2.40
2023-04-15T05:05:49.634Z,2.80
2023-04-15T05:08:19.025Z,2.00
2023-04-15T05:10:48.821Z,3.90
2023-04-15T05:13:18.120Z,4.10
2023-04-15T05:15:47.526Z,2.30
2023-04-15T05:18:16.946Z,2.50
2023-04-15T05:20:50.287Z,2.50
2023-04-15T05:23:19.700Z,1.90
2023-04-15T05:25:49.150Z,3.00
2023-04-15T05:28:18.430Z,2.20
2023-04-15T05:30:47.743Z,3.00
2023-04-15T05:33:17.682Z,2.70
2023-04-15T05:35:47.059Z,2.70
2023-04-15T05:38:16.509Z,2.40
2023-04-15T05:40:46.476Z,2.10
2023-04-15T05:43:15.829Z,2.30
2023-04-15T05:45:45.192Z,3.10
2023-04-15T05:48:16.020Z,6.10
2023-04-15T05:50:45.680Z,3.30
2023-04-15T05:53:15.329Z,3.50
2023-04-15T05:55:44.709Z,3.30
2023-04-15T05:58:14.173Z,2.50
2023-04-15T06:00:44.969Z,2.70
2023-04-15T06:03:16.570Z,2.50
2023-04-15T06:05:45.977Z,2.10
2023-04-15T06:08:15.439Z,2.10
2023-04-15T06:10:46.303Z,2.00
2023-04-15T06:13:17.757Z,3.70
2023-04-15T06:15:47.660Z,2.60
2023-04-15T06:18:16.943Z,1.60
2023-04-15T06:20:48.680Z,1.60
2023-04-15T06:23:18.372Z,3.10
2023-04-15T06:25:48.123Z,1.50
2023-04-15T06:28:17.670Z,1.30
2023-04-15T06:30:47.026Z,1.40
2023-04-15T06:33:16.758Z,1.90
2023-04-15T06:35:46.361Z,2.30
2023-04-15T06:38:16.011Z,2.00
2023-04-15T06:40:46.724Z,2.20
2023-04-15T06:43:18.607Z,2.70
2023-04-15T06:45:48.048Z,1.60
2023-04-15T06:48:18.238Z,1.90
2023-04-15T06:50:47.947Z,2.70
2023-04-15T06:53:17.494Z,3.60
2023-04-15T06:55:47.418Z,4.40
2023-04-15T06:58:17.495Z,5.30
2023-04-15T07:00:48.144Z,3.70
2023-04-15T07:03:18.100Z,3.20
2023-04-15T07:05:47.562Z,4.70
2023-04-15T07:08:17.301Z,3.00
2023-04-15T07:10:47.715Z,4.20
2023-04-15T07:13:17.624Z,2.30
2023-04-15T07:15:47.035Z,1.90
2023-04-15T07:18:16.495Z,2.80
2023-04-15T07:20:45.897Z,1.70
2023-04-15T07:23:15.438Z,1.80
2023-04-15T07:25:44.873Z,1.30
2023-04-15T07:28:14.230Z,6.80
2023-04-15T07:30:43.584Z,3.50
2023-04-15T07:33:13.214Z,1.50
2023-04-15T07:35:42.667Z,1.30
2023-04-15T07:38:15.034Z,1.90
2023-04-15T07:40:46.101Z,1.70
2023-04-15T07:43:18.162Z,1.90
2023-04-15T07:45:49.218Z,1.40
2023-04-15T07:48:23.670Z,1.50
2023-04-15T07:50:54.314Z,2.40
2023-04-15T07:53:25.308Z,2.90
2023-04-15T07:55:54.644Z,2.10
2023-04-15T07:58:25.330Z,1.40
2023-04-15T08:00:57.286Z,1.90
2023-04-15T08:03:27.145Z,2.70
2023-04-15T08:05:56.826Z,1.50
2023-04-15T08:08:27.687Z,1.80
2023-04-15T08:10:59.001Z,2.20
2023-04-15T08:13:28.404Z,2.20
2023-04-15T08:16:19.998Z,3.60
2023-04-15T08:18:51.118Z,2.10
2023-04-15T08:21:21.032Z,1.60
2023-04-15T08:23:53.866Z,2.10
2023-04-15T08:26:25.575Z,1.70
2023-04-15T08:29:30.469Z,1.80
2023-04-15T08:32:06.633Z,3.20
2023-04-15T08:34:46.888Z,2.10
2023-04-15T08:37:18.768Z,2.00
2023-04-15T08:39:49.688Z,1.70
2023-04-15T08:42:32.112Z,1.80
2023-04-15T08:45:16.078Z,2.00
2023-04-15T08:47:58.208Z,2.20
2023-04-15T08:50:34.162Z,1.90
2023-04-15T08:53:06.933Z,1.60
2023-04-15T08:55:40.210Z,1.50
2023-04-15T08:58:11.631Z,1.90
2023-04-15T09:00:47.356Z,2.00
2023-04-15T09:03:22.073Z,1.70
2023-04-15T09:05:53.256Z,1.90
2023-04-15T09:08:22.943Z,2.00
2023-04-15T09:10:52.750Z,2.20
2023-04-15T09:13:22.408Z,2.70
2023-04-15T09:15:53.959Z,1.90
2023-04-15T09:18:30.230Z,2.30
2023-04-15T09:21:19.404Z,1.10
2023-04-15T09:24:02.249Z,2.00
2023-04-15T09:26:40.495Z,2.20
2023-04-15T09:29:15.614Z,1.70
2023-04-15T09:31:45.118Z,1.40
2023-04-15T09:34:16.979Z,1.50
2023-04-15T09:36:49.213Z,1.60
2023-04-15T09:39:21.479Z,1.90
2023-04-15T09:42:11.567Z,1.00
2023-04-15T09:44:40.990Z,1.20
2023-04-15T09:47:33.260Z,1.10
2023-04-15T09:50:03.754Z,0.90
2023-04-15T09:52:33.746Z,2.40
2023-04-15T09:55:03.148Z,1.10
2023-04-15T09:57:39.709Z,1.30
2023-04-15T10:00:12.669Z,1.40
2023-04-15T10:02:49.993Z,1.30
2023-04-15T10:05:24.350Z,1.30
2023-04-15T10:07:54.595Z,2.30
2023-04-15T10:10:26.158Z,2.10
2023-04-15T10:12:58.461Z,1.50
2023-04-15T10:15:35.177Z,1.60
2023-04-15T10:18:10.356Z,1.80
2023-04-15T10:20:43.467Z,2.10
2023-04-15T10:23:14.370Z,1.30
2023-04-15T10:25:46.889Z,1.30
2023-04-15T10:28:18.339Z,1.40
2023-04-15T10:30:50.305Z,1.50
2023-04-15T10:33:25.370Z,1.30
2023-04-15T10:36:27.831Z,3.20
2023-04-15T10:39:02.394Z,3.50
2023-04-15T10:41:35.541Z,1.20
2023-04-15T10:44:06.004Z,2.20
2023-04-15T10:46:52.906Z,1.00
2023-04-15T10:49:27.103Z,0.60
2023-04-15T10:52:04.708Z,0.80
2023-04-15T10:54:36.560Z,0.80
2023-04-15T10:57:17.507Z,0.90
2023-04-15T11:00:03.533Z,1.10
2023-04-15T11:02:45.735Z,1.00
2023-04-15T11:05:20.099Z,1.40
2023-04-15T11:07:57.777Z,1.00
2023-04-15T11:10:34.089Z,1.00
2023-04-15T11:13:11.974Z,1.20
2023-04-15T11:15:47.782Z,1.90
2023-04-15T11:18:23.318Z,1.00
2023-04-15T11:21:01.379Z,1.40
2023-04-15T11:23:48.821Z,2.10
2023-04-15T11:26:18.904Z,1.00
2023-04-15T11:28:53.281Z,2.20
2023-04-15T11:31:34.036Z,2.20
2023-04-15T11:34:08.457Z,1.20
2023-04-15T11:36:43.973Z,1.40
2023-04-15T11:39:15.475Z,1.20
2023-04-15T11:41:46.232Z,0.80
2023-04-15T11:44:19.405Z,1.20
2023-04-15T11:46:50.027Z,0.70
2023-04-15T11:49:35.461Z,0.50
2023-04-15T11:52:11.748Z,1.80
2023-04-15T11:54:41.593Z,0.40
2023-04-15T11:57:11.847Z,0.90
2023-04-15T11:59:46.190Z,0.60
2023-04-15T12:02:16.894Z,1.00
2023-04-15T12:04:49.673Z,0.80
2023-04-15T12:07:22.161Z,0.60
2023-04-15T12:09:59.010Z,0.80
2023-04-15T12:12:29.779Z,0.70
2023-04-15T12:14:59.629Z,0.70
2023-04-15T12:17:29.106Z,0.60
2023-04-15T12:19:58.651Z,1.40
2023-04-15T12:22:41.010Z,0.50
2023-04-15T12:25:16.430Z,0.80
2023-04-15T12:27:54.015Z,0.60
2023-04-15T12:30:25.507Z,1.20
2023-04-15T12:32:57.401Z,0.90
2023-04-15T12:35:31.305Z,0.80
2023-04-15T12:38:00.995Z,1.10
2023-04-15T12:40:30.491Z,0.70
2023-04-15T12:42:59.928Z,1.40
2023-04-15T12:45:31.422Z,0.80
2023-04-15T12:48:01.328Z,1.20
2023-04-15T12:50:32.298Z,1.50
2023-04-15T12:53:06.364Z,0.80
2023-04-15T12:55:35.892Z,0.80
2023-04-15T12:58:05.944Z,1.80
2023-04-15T13:00:39.255Z,0.70
2023-04-15T13:03:09.980Z,0.50
2023-04-15T13:05:40.139Z,0.90
2023-04-15T13:08:09.709Z,0.70
2023-04-15T13:10:39.277Z,0.70
2023-04-15T13:13:08.872Z,0.80
2023-04-15T13:15:42.794Z,0.70
2023-04-15T13:18:12.344Z,1.30
2023-04-15T13:20:44.069Z,0.50
2023-04-15T13:23:13.767Z,1.20
2023-04-15T13:25:43.805Z,0.80
2023-04-15T13:28:16.409Z,1.10
2023-04-15T13:30:52.051Z,0.50
2023-04-15T13:33:26.910Z,0.90
2023-04-15T13:36:44.579Z,0.70
2023-04-15T13:39:20.897Z,0.80
2023-04-15T13:41:52.153Z,1.10
2023-04-15T13:47:05.022Z,0.80
2023-04-15T13:49:34.658Z,0.50
2023-04-15T13:52:05.640Z,0.50
2023-04-15T13:54:37.391Z,1.30
2023-04-15T13:57:07.625Z,1.10
2023-04-15T13:59:37.082Z,0.40
2023-04-15T14:02:07.387Z,1.00
2023-04-15T14:04:39.386Z,0.80
2023-04-15T14:07:08.921Z,0.70
2023-04-15T14:09:45.102Z,0.70
2023-04-15T14:12:19.120Z,0.50
2023-04-15T14:14:49.595Z,1.10
2023-04-15T14:17:19.362Z,0.60
2023-04-15T14:19:50.735Z,1.40
2023-04-15T14:22:22.838Z,0.90
2023-04-15T14:24:53.841Z,3.40
2023-04-15T14:27:23.447Z,1.70
2023-04-15T14:29:58.405Z,0.80
2023-04-15T14:32:28.126Z,1.00
2023-04-15T14:35:02.761Z,1.50
2023-04-15T14:37:57.663Z,0.80
2023-04-15T14:40:27.303Z,0.90
2023-04-15T14:42:56.890Z,1.00
2023-04-15T14:45:26.347Z,0.90
2023-04-15T14:47:56.199Z,0.80
2023-04-15T14:50:25.659Z,1.20
2023-04-15T14:52:55.135Z,0.90
2023-04-15T14:55:24.703Z,0.80
2023-04-15T14:57:54.959Z,0.70
2023-04-15T15:00:24.569Z,1.10
2023-04-15T15:02:54.103Z,1.00
2023-04-15T15:05:23.755Z,1.00
2023-04-15T15:08:01.429Z,0.70
2023-04-15T15:10:48.715Z,0.80
2023-04-15T15:13:24.217Z,1.10
2023-04-15T15:18:40.794Z,0.40
2023-04-15T15:21:13.725Z,0.60
2023-04-15T15:27:05.346Z,0.50
2023-04-15T15:29:38.610Z,3.00
2023-04-15T15:32:09.178Z,1.10
2023-04-15T15:34:41.060Z,1.20
2023-04-15T15:37:11.883Z,1.40
2023-04-15T15:39:41.483Z,1.30
2023-04-15T15:42:11.725Z,0.90
2023-04-15T15:44:41.312Z,1.00
2023-04-15T15:47:10.740Z,0.80
2023-04-15T15:49:40.578Z,1.20
2023-04-15T15:52:10.666Z,0.90
2023-04-15T15:54:41.932Z,0.90
2023-04-15T15:57:11.615Z,1.30
2023-04-15T15:59:44.094Z,0.90
2023-04-15T16:02:14.611Z,0.70
2023-04-15T16:04:44.261Z,0.70
2023-04-15T16:07:15.718Z,0.90
2023-04-15T16:09:45.527Z,0.80
2023-04-15T16:12:14.997Z,0.70
2023-04-15T16:14:44.517Z,1.10
2023-04-15T16:17:14.248Z,1.60
2023-04-15T16:19:57.897Z,1.20
2023-04-15T16:22:38.650Z,1.50
2023-04-15T16:25:33.887Z,1.20
2023-04-15T16:28:22.687Z,0.90
2023-04-15T16:30:58.609Z,0.60
2023-04-15T16:33:29.538Z,0.70
2023-04-15T16:36:02.507Z,0.70
2023-04-15T16:38:33.868Z,1.50
2023-04-15T16:41:04.786Z,1.20
2023-04-15T16:43:34.355Z,0.50
2023-04-15T16:46:04.241Z,0.50
2023-04-15T16:48:33.820Z,0.80
2023-04-15T16:51:03.401Z,1.00
2023-04-15T16:53:32.918Z,0.60
2023-04-15T16:56:03.480Z,0.80
2023-04-15T16:58:37.971Z,0.80
2023-04-15T17:01:08.763Z,0.90
2023-04-15T17:03:39.033Z,1.80
2023-04-15T17:06:09.799Z,1.40
2023-04-15T17:08:44.046Z,1.00
2023-04-15T17:11:18.086Z,1.20
2023-04-15T17:13:49.286Z,1.30
2023-04-15T17:16:21.833Z,1.80
2023-04-15T17:18:54.090Z,1.70
2023-04-15T17:21:25.855Z,1.10
2023-04-15T17:23:55.965Z,0.80
2023-04-15T17:26:25.635Z,1.30
2023-04-15T17:28:55.223Z,0.90
2023-04-15T17:31:26.242Z,0.80
2023-04-15T17:34:07.213Z,0.90
2023-04-15T17:36:38.987Z,1.20
2023-04-15T17:39:08.884Z,1.20
2023-04-15T17:41:38.506Z,0.90
2023-04-15T17:44:08.964Z,0.90
2023-04-15T17:46:40.277Z,0.80
2023-04-15T17:49:09.863Z,0.90
2023-04-15T17:51:39.651Z,0.80
2023-04-15T17:54:12.279Z,0.80
2023-04-15T17:56:41.964Z,0.90
2023-04-15T17:59:12.147Z,0.90
2023-04-15T18:01:42.864Z,0.90
2023-04-15T18:04:12.929Z,1.10
2023-04-15T18:06:42.744Z,1.30
2023-04-15T18:09:12.862Z,0.90
2023-04-15T18:11:45.993Z,1.10
2023-04-15T18:14:26.696Z,1.40
2023-04-15T18:17:03.830Z,2.80
2023-04-15T18:19:33.334Z,5.60
2023-04-15T18:22:04.297Z,6.10
2023-04-15T18:24:34.066Z,4.30
2023-04-15T18:27:03.892Z,4.40
2023-04-15T18:29:35.499Z,3.20
2023-04-15T18:32:07.426Z,2.50
2023-04-15T18:34:37.324Z,1.20
2023-04-15T18:37:07.100Z,1.60
2023-04-15T18:39:36.793Z,2.30
2023-04-15T18:42:06.358Z,2.70
2023-04-15T18:44:37.351Z,2.70
2023-04-15T18:47:07.496Z,3.20
2023-04-15T18:49:36.986Z,2.90
2023-04-15T18:52:06.872Z,2.70
2023-04-15T18:54:37.824Z,2.50
2023-04-15T18:57:07.432Z,2.70
2023-04-15T18:59:37.446Z,2.30
2023-04-15T19:02:08.195Z,2.20
2023-04-15T19:04:39.939Z,2.50
2023-04-15T19:07:10.124Z,2.80
2023-04-15T19:09:41.273Z,3.00
2023-04-15T19:12:11.339Z,3.20
2023-04-15T19:14:41.695Z,2.40
2023-04-15T19:17:12.803Z,2.30
2023-04-15T19:19:42.678Z,2.20
2023-04-15T19:22:12.571Z,2.20
2023-04-15T19:24:42.155Z,2.30
2023-04-15T19:27:11.765Z,2.80
2023-04-15T19:29:41.449Z,2.80
2023-04-15T19:32:11.022Z,3.80
2023-04-15T19:34:42.358Z,3.80
2023-04-15T19:37:13.019Z,3.60
2023-04-15T19:39:44.360Z,3.90
2023-04-15T19:42:15.221Z,4.00
2023-04-15T19:44:44.654Z,3.60
2023-04-15T19:47:14.457Z,3.80
2023-04-15T19:49:44.118Z,4.00
2023-04-15T19:52:13.921Z,4.20
2023-04-15T19:54:43.529Z,5.80
2023-04-15T19:57:13.069Z,6.10
2023-04-15T19:59:42.552Z,6.10
2023-04-15T20:02:13.137Z,5.10
2023-04-15T20:04:43.177Z,5.10
2023-04-15T20:07:12.792Z,5.20
2023-04-15T20:09:44.379Z,4.30
2023-04-15T20:12:50.029Z,4.80
2023-04-15T20:15:03.667Z,4.30
2023-04-15T20:17:34.333Z,4.40
2023-04-15T20:20:07.974Z,4.10
2023-04-15T20:22:37.907Z,4.10
2023-04-15T20:25:10.066Z,3.60
2023-04-15T20:27:39.929Z,3.80
2023-04-15T20:30:10.198Z,4.20
2023-04-15T20:32:39.809Z,4.10
2023-04-15T20:35:09.735Z,3.90
2023-04-15T20:37:40.537Z,3.50
2023-04-15T20:40:11.550Z,3.10
2023-04-15T20:42:44.137Z,3.40
2023-04-15T20:45:15.772Z,3.60
2023-04-15T20:47:45.439Z,3.50
2023-04-15T20:50:14.965Z,3.30
2023-04-15T20:52:44.406Z,4.30
2023-04-15T20:55:13.952Z,6.10
2023-04-15T20:57:43.464Z,4.70
2023-04-15T21:00:13.236Z,4.90
2023-04-15T21:02:42.956Z,3.90
2023-04-15T21:05:12.904Z,4.20
2023-04-15T21:07:42.575Z,4.50
2023-04-15T21:10:12.031Z,4.20
2023-04-15T21:12:42.609Z,3.80
2023-04-15T21:15:12.545Z,3.60
2023-04-15T21:17:44.711Z,3.30
2023-04-15T21:20:15.801Z,3.30
2023-04-15T21:22:46.890Z,3.10
2023-04-15T21:25:16.928Z,3.50
2023-04-15T21:27:46.740Z,4.40
2023-04-15T21:30:16.311Z,4.70
2023-04-15T21:32:46.175Z,4.60
2023-04-15T21:35:16.920Z,5.10
2023-04-15T21:37:48.898Z,4.60
2023-04-15T21:40:19.595Z,4.40
2023-04-15T21:42:50.420Z,4.50
2023-04-15T21:45:21.091Z,4.30
2023-04-15T21:47:56.844Z,3.80
2023-04-15T21:50:44.111Z,3.60
2023-04-15T21:53:13.577Z,3.80
2023-04-15T21:55:43.220Z,4.30
2023-04-15T21:58:12.870Z,3.90
2023-04-15T22:00:42.580Z,4.60
2023-04-15T22:03:13.803Z,4.00
2023-04-15T22:05:47.450Z,4.30
2023-04-15T22:08:17.780Z,4.40
2023-04-15T22:10:47.906Z,4.00
2023-04-15T22:13:19.047Z,3.80
2023-04-15T22:15:48.622Z,4.30
2023-04-15T22:18:22.155Z,3.90
2023-04-15T22:20:51.716Z,3.90
2023-04-15T22:23:21.469Z,4.70
2023-04-15T22:25:54.979Z,4.40
2023-04-15T22:28:25.659Z,4.00
2023-04-15T22:30:58.247Z,4.20
2023-04-15T22:33:28.048Z,4.70
2023-04-15T22:35:57.931Z,4.90
2023-04-15T22:38:27.554Z,5.30
2023-04-15T22:40:58.159Z,5.60
2023-04-15T22:43:28.005Z,5.40
2023-04-15T22:45:57.616Z,5.30
2023-04-15T22:48:27.242Z,5.60
2023-04-15T22:50:56.896Z,6.10
2023-04-15T22:53:27.734Z,6.00
2023-04-15T22:55:57.180Z,6.70
2023-04-15T22:58:26.642Z,6.00
2023-04-15T23:00:56.245Z,6.00
2023-04-15T23:03:25.973Z,6.40
2023-04-15T23:05:57.995Z,6.80
2023-04-15T23:08:27.557Z,6.20
2023-04-15T23:10:57.092Z,5.30
2023-04-15T23:13:26.708Z,4.00
2023-04-15T23:15:56.371Z,3.90
2023-04-15T23:18:26.576Z,4.30
2023-04-15T23:20:57.692Z,4.00
2023-04-15T23:23:27.220Z,4.30
2023-04-15T23:25:56.931Z,4.60
2023-04-15T23:28:26.917Z,4.30
2023-04-15T23:31:00.469Z,4.60
2023-04-15T23:33:33.149Z,5.00
2023-04-15T23:36:02.839Z,5.80
2023-04-15T23:38:32.800Z,5.70
2023-04-15T23:41:02.364Z,6.30
2023-04-15T23:43:32.103Z,7.00
2023-04-15T23:46:03.853Z,7.40
2023-04-15T23:48:35.186Z,7.20
2023-04-15T23:51:06.083Z,7.60
2023-04-15T23:53:36.573Z,8.90
2023-04-15T23:56:06.478Z,6.30
2023-04-15T23:58:36.192Z,8.80
